Cantaura, Venezuela
Current Conditions -  °F | °C
As of 1:00 PM on Thursday 30 Oct 2014 (Local Time) from SVBC Reporting Station
Broken Clouds Broken Clouds  
Wind Chill: 34°   Ceiling: 1000
Heat Index: 43°   Visibility: 6mi
Dew Point: 26°   Wind: 12mph
Humidity: 63%   Direction: 340°NNW
Pressure: 29.83"   Gusts: NA
Location:  9.31°N, 64.37°W
Report Text: SVBC 301700Z 34010KT BKN010 34/26 Q1010
Loading
Personal Weather Stations






























Interactive Weather Map
Tropical Storm Tracking
New forecast layout! Learn more

10-Day Weather Forecast

Advertisements
Track Severe Weather on mobile